sensor_id;sensor_type;location;lat;lon;timestamp;pressure;altitude;pressure_sealevel;temperature;humidity
28000;BME280;15328;50.860;10.562;2023-04-29T00:00:12;96020.78;;;13.08;69.89
28000;BME280;15328;50.860;10.562;2023-04-29T00:05:13;96012.38;;;13.16;68.94
28000;BME280;15328;50.860;10.562;2023-04-29T00:10:13;96008.97;;;13.04;70.04
28000;BME280;15328;50.860;10.562;2023-04-29T00:15:14;96007.25;;;13.14;69.07
28000;BME280;15328;50.860;10.562;2023-04-29T00:20:14;96012.28;;;13.11;69.40
28000;BME280;15328;50.860;10.562;2023-04-29T00:25:15;96010.19;;;13.13;69.28
28000;BME280;15328;50.860;10.562;2023-04-29T00:30:16;96012.78;;;13.08;69.34
28000;BME280;15328;50.860;10.562;2023-04-29T00:35:16;96003.56;;;12.98;70.03
28000;BME280;15328;50.860;10.562;2023-04-29T00:40:17;96008.50;;;12.90;69.86
28000;BME280;15328;50.860;10.562;2023-04-29T00:45:17;96014.31;;;12.87;69.37
28000;BME280;15328;50.860;10.562;2023-04-29T00:50:17;96024.00;;;12.76;69.42
28000;BME280;15328;50.860;10.562;2023-04-29T00:55:18;96025.78;;;12.87;68.80
28000;BME280;15328;50.860;10.562;2023-04-29T01:00:19;96033.78;;;12.87;68.32
28000;BME280;15328;50.860;10.562;2023-04-29T01:05:20;96024.09;;;12.81;68.35
28000;BME280;15328;50.860;10.562;2023-04-29T01:10:53;96033.16;;;12.80;68.60
28000;BME280;15328;50.860;10.562;2023-04-29T01:20:55;96039.53;;;12.79;68.50
28000;BME280;15328;50.860;10.562;2023-04-29T01:25:57;96038.72;;;12.79;68.27
28000;BME280;15328;50.860;10.562;2023-04-29T01:36:39;96029.19;;;12.83;68.67
28000;BME280;15328;50.860;10.562;2023-04-29T01:41:52;96035.34;;;12.83;68.05
28000;BME280;15328;50.860;10.562;2023-04-29T01:46:57;96031.28;;;12.81;68.89
28000;BME280;15328;50.860;10.562;2023-04-29T01:51:58;96032.50;;;12.73;68.54
28000;BME280;15328;50.860;10.562;2023-04-29T01:56:58;96034.19;;;12.79;68.38
28000;BME280;15328;50.860;10.562;2023-04-29T02:01:59;96033.22;;;12.85;68.23
28000;BME280;15328;50.860;10.562;2023-04-29T02:07:00;96028.81;;;12.91;68.12
28000;BME280;15328;50.860;10.562;2023-04-29T02:12:00;96024.84;;;12.93;68.17
28000;BME280;15328;50.860;10.562;2023-04-29T02:17:01;96034.53;;;12.99;67.80
28000;BME280;15328;50.860;10.562;2023-04-29T02:22:01;96035.84;;;12.97;67.43
28000;BME280;15328;50.860;10.562;2023-04-29T02:27:02;96038.19;;;12.93;67.41
28000;BME280;15328;50.860;10.562;2023-04-29T02:32:04;96044.09;;;12.95;67.50
28000;BME280;15328;50.860;10.562;2023-04-29T02:37:06;96033.91;;;12.92;67.28
28000;BME280;15328;50.860;10.562;2023-04-29T02:42:06;96049.19;;;12.97;67.07
28000;BME280;15328;50.860;10.562;2023-04-29T02:47:07;96048.88;;;12.93;67.26
28000;BME280;15328;50.860;10.562;2023-04-29T02:57:13;96047.88;;;12.83;67.97
28000;BME280;15328;50.860;10.562;2023-04-29T03:02:14;96050.84;;;12.69;69.21
28000;BME280;15328;50.860;10.562;2023-04-29T03:07:14;96045.31;;;12.59;69.28
28000;BME280;15328;50.860;10.562;2023-04-29T03:12:16;96051.19;;;12.73;68.60
28000;BME280;15328;50.860;10.562;2023-04-29T03:17:16;96051.19;;;12.73;68.50
28000;BME280;15328;50.860;10.562;2023-04-29T03:22:17;96047.53;;;12.79;68.11
28000;BME280;15328;50.860;10.562;2023-04-29T03:27:18;96045.53;;;12.86;68.00
28000;BME280;15328;50.860;10.562;2023-04-29T03:32:18;96037.50;;;12.86;68.15
28000;BME280;15328;50.860;10.562;2023-04-29T03:37:19;96048.78;;;12.88;67.71
28000;BME280;15328;50.860;10.562;2023-04-29T03:42:19;96044.34;;;12.94;67.86
28000;BME280;15328;50.860;10.562;2023-04-29T03:47:20;96054.28;;;12.98;68.01
28000;BME280;15328;50.860;10.562;2023-04-29T03:52:20;96050.25;;;12.96;68.19
28000;BME280;15328;50.860;10.562;2023-04-29T03:57:20;96047.25;;;12.92;68.78
28000;BME280;15328;50.860;10.562;2023-04-29T04:02:21;96052.28;;;12.89;68.94
28000;BME280;15328;50.860;10.562;2023-04-29T04:07:21;96070.47;;;12.92;68.92
28000;BME280;15328;50.860;10.562;2023-04-29T04:12:21;96067.06;;;12.96;69.15
28000;BME280;15328;50.860;10.562;2023-04-29T04:17:22;96075.81;;;12.92;69.00
28000;BME280;15328;50.860;10.562;2023-04-29T04:22:22;96086.56;;;12.97;69.21
28000;BME280;15328;50.860;10.562;2023-04-29T04:27:22;96094.06;;;12.83;69.61
28000;BME280;15328;50.860;10.562;2023-04-29T04:32:23;96098.41;;;12.73;69.76
28000;BME280;15328;50.860;10.562;2023-04-29T04:37:23;96108.53;;;12.59;70.71
28000;BME280;15328;50.860;10.562;2023-04-29T04:42:24;96114.59;;;12.54;70.41
28000;BME280;15328;50.860;10.562;2023-04-29T04:47:24;96120.78;;;12.43;70.91
28000;BME280;15328;50.860;10.562;2023-04-29T04:52:24;96125.56;;;12.41;71.52
28000;BME280;15328;50.860;10.562;2023-04-29T04:57:25;96136.47;;;12.40;71.42
28000;BME280;15328;50.860;10.562;2023-04-29T05:02:25;96132.28;;;12.44;71.12
28000;BME280;15328;50.860;10.562;2023-04-29T05:07:26;96145.19;;;12.35;71.37
28000;BME280;15328;50.860;10.562;2023-04-29T05:12:29;96146.81;;;12.36;71.57
28000;BME280;15328;50.860;10.562;2023-04-29T05:17:30;96142.59;;;12.40;71.58
28000;BME280;15328;50.860;10.562;2023-04-29T05:22:30;96151.41;;;12.41;71.45
28000;BME280;15328;50.860;10.562;2023-04-29T05:27:30;96155.13;;;12.40;71.47
28000;BME280;15328;50.860;10.562;2023-04-29T05:32:31;96154.19;;;12.46;71.46
28000;BME280;15328;50.860;10.562;2023-04-29T05:37:31;96165.72;;;12.34;71.71
28000;BME280;15328;50.860;10.562;2023-04-29T05:42:31;96164.66;;;12.24;71.97
28000;BME280;15328;50.860;10.562;2023-04-29T05:47:32;96171.47;;;12.31;71.35
28000;BME280;15328;50.860;10.562;2023-04-29T05:52:32;96166.72;;;12.45;71.27
28000;BME280;15328;50.860;10.562;2023-04-29T05:57:33;96167.47;;;12.57;70.38
28000;BME280;15328;50.860;10.562;2023-04-29T06:02:33;96184.06;;;12.59;69.86
28000;BME280;15328;50.860;10.562;2023-04-29T06:07:34;96187.44;;;12.55;69.79
28000;BME280;15328;50.860;10.562;2023-04-29T06:12:34;96196.97;;;12.62;69.93
28000;BME280;15328;50.860;10.562;2023-04-29T06:17:35;96211.34;;;12.61;69.92
28000;BME280;15328;50.860;10.562;2023-04-29T06:22:35;96215.28;;;12.59;69.70
28000;BME280;15328;50.860;10.562;2023-04-29T06:27:35;96222.38;;;12.65;69.30
28000;BME280;15328;50.860;10.562;2023-04-29T06:32:37;96218.84;;;12.76;69.23
28000;BME280;15328;50.860;10.562;2023-04-29T06:37:38;96226.38;;;12.79;68.52
28000;BME280;15328;50.860;10.562;2023-04-29T06:42:38;96231.00;;;12.84;68.69
28000;BME280;15328;50.860;10.562;2023-04-29T06:47:38;96232.38;;;12.86;69.08
28000;BME280;15328;50.860;10.562;2023-04-29T06:52:39;96236.56;;;12.94;68.17
28000;BME280;15328;50.860;10.562;2023-04-29T06:57:40;96239.25;;;13.11;67.98
28000;BME280;15328;50.860;10.562;2023-04-29T07:02:40;96251.25;;;13.20;68.03
28000;BME280;15328;50.860;10.562;2023-04-29T07:07:41;96261.34;;;13.18;67.97
28000;BME280;15328;50.860;10.562;2023-04-29T07:12:41;96262.25;;;13.12;66.79
28000;BME280;15328;50.860;10.562;2023-04-29T07:17:41;96272.06;;;12.94;66.53
28000;BME280;15328;50.860;10.562;2023-04-29T07:22:42;96280.31;;;12.81;66.26
28000;BME280;15328;50.860;10.562;2023-04-29T07:27:42;96283.81;;;12.82;67.04
28000;BME280;15328;50.860;10.562;2023-04-29T07:32:42;96292.38;;;12.95;67.20
28000;BME280;15328;50.860;10.562;2023-04-29T07:37:43;96299.44;;;13.02;66.74
28000;BME280;15328;50.860;10.562;2023-04-29T07:42:44;96302.56;;;13.22;66.13
28000;BME280;15328;50.860;10.562;2023-04-29T07:47:45;96316.75;;;13.39;65.87
28000;BME280;15328;50.860;10.562;2023-04-29T07:52:45;96325.56;;;13.51;65.04
28000;BME280;15328;50.860;10.562;2023-04-29T07:57:46;96326.06;;;13.65;65.19
28000;BME280;15328;50.860;10.562;2023-04-29T08:02:50;96330.91;;;13.80;64.34
28000;BME280;15328;50.860;10.562;2023-04-29T08:07:51;96340.13;;;13.72;64.63
28000;BME280;15328;50.860;10.562;2023-04-29T08:12:51;96343.25;;;13.69;64.42
28000;BME280;15328;50.860;10.562;2023-04-29T08:17:52;96357.16;;;13.54;64.90
28000;BME280;15328;50.860;10.562;2023-04-29T08:22:52;96358.34;;;13.47;65.36
28000;BME280;15328;50.860;10.562;2023-04-29T08:27:53;96364.19;;;13.44;64.21
28000;BME280;15328;50.860;10.562;2023-04-29T08:32:53;96364.19;;;13.32;64.57
28000;BME280;15328;50.860;10.562;2023-04-29T08:37:53;96363.19;;;13.21;65.13
28000;BME280;15328;50.860;10.562;2023-04-29T08:42:54;96369.09;;;13.23;64.88
28000;BME280;15328;50.860;10.562;2023-04-29T08:47:55;96371.50;;;13.13;65.47
28000;BME280;15328;50.860;10.562;2023-04-29T08:52:56;96385.56;;;13.09;65.44
28000;BME280;15328;50.860;10.562;2023-04-29T08:57:56;96388.03;;;12.98;65.88
28000;BME280;15328;50.860;10.562;2023-04-29T09:02:57;96395.81;;;12.88;66.80
28000;BME280;15328;50.860;10.562;2023-04-29T09:08:00;96410.31;;;12.81;66.78
28000;BME280;15328;50.860;10.562;2023-04-29T09:13:02;96413.81;;;12.93;67.43
28000;BME280;15328;50.860;10.562;2023-04-29T09:18:02;96409.03;;;12.95;67.23
28000;BME280;15328;50.860;10.562;2023-04-29T09:23:03;96415.19;;;12.95;67.76
28000;BME280;15328;50.860;10.562;2023-04-29T09:28:14;96420.56;;;13.19;67.99
28000;BME280;15328;50.860;10.562;2023-04-29T09:33:15;96423.63;;;13.39;68.44
28000;BME280;15328;50.860;10.562;2023-04-29T09:38:16;96428.94;;;13.63;66.96
28000;BME280;15328;50.860;10.562;2023-04-29T09:43:17;96434.75;;;13.71;66.03
28000;BME280;15328;50.860;10.562;2023-04-29T09:48:18;96442.63;;;13.66;65.82
28000;BME280;15328;50.860;10.562;2023-04-29T09:53:28;96446.13;;;13.67;65.44
28000;BME280;15328;50.860;10.562;2023-04-29T09:58:33;96448.22;;;13.65;65.20
28000;BME280;15328;50.860;10.562;2023-04-29T10:03:37;96452.63;;;13.71;64.91
28000;BME280;15328;50.860;10.562;2023-04-29T10:08:38;96462.38;;;13.65;64.37
28000;BME280;15328;50.860;10.562;2023-04-29T10:13:41;96466.44;;;13.79;63.67
28000;BME280;15328;50.860;10.562;2023-04-29T10:18:47;96464.81;;;13.78;62.91
28000;BME280;15328;50.860;10.562;2023-04-29T10:23:48;96473.75;;;13.84;63.04
28000;BME280;15328;50.860;10.562;2023-04-29T10:28:50;96478.75;;;13.80;62.92
28000;BME280;15328;50.860;10.562;2023-04-29T10:33:56;96484.44;;;13.84;62.60
28000;BME280;15328;50.860;10.562;2023-04-29T10:39:02;96484.34;;;13.79;62.42
28000;BME280;15328;50.860;10.562;2023-04-29T10:44:05;96485.38;;;13.78;62.18
28000;BME280;15328;50.860;10.562;2023-04-29T10:49:06;96492.13;;;13.80;61.77
28000;BME280;15328;50.860;10.562;2023-04-29T10:54:16;96488.53;;;13.75;61.59
28000;BME280;15328;50.860;10.562;2023-04-29T11:05:06;96492.88;;;13.52;61.63
28000;BME280;15328;50.860;10.562;2023-04-29T11:10:07;96495.09;;;13.44;62.66
28000;BME280;15328;50.860;10.562;2023-04-29T11:15:08;96511.38;;;13.42;62.58
28000;BME280;15328;50.860;10.562;2023-04-29T11:20:13;96518.66;;;13.35;62.90
28000;BME280;15328;50.860;10.562;2023-04-29T11:25:13;96526.81;;;13.28;63.39
28000;BME280;15328;50.860;10.562;2023-04-29T11:30:14;96533.53;;;13.19;63.90
28000;BME280;15328;50.860;10.562;2023-04-29T11:35:17;96539.19;;;13.11;63.95
28000;BME280;15328;50.860;10.562;2023-04-29T11:40:18;96532.44;;;12.97;64.14
28000;BME280;15328;50.860;10.562;2023-04-29T11:45:19;96544.88;;;12.91;64.75
28000;BME280;15328;50.860;10.562;2023-04-29T11:50:19;96544.28;;;12.89;64.97
28000;BME280;15328;50.860;10.562;2023-04-29T11:55:20;96552.38;;;12.83;65.46
28000;BME280;15328;50.860;10.562;2023-04-29T12:00:20;96560.72;;;12.86;65.24
28000;BME280;15328;50.860;10.562;2023-04-29T12:05:24;96561.78;;;12.85;65.24
28000;BME280;15328;50.860;10.562;2023-04-29T12:10:25;96568.06;;;12.91;65.02
28000;BME280;15328;50.860;10.562;2023-04-29T12:15:26;96566.22;;;12.91;64.64
28000;BME280;15328;50.860;10.562;2023-04-29T12:20:28;96577.34;;;12.88;64.34
28000;BME280;15328;50.860;10.562;2023-04-29T12:25:31;96573.50;;;12.84;64.34
28000;BME280;15328;50.860;10.562;2023-04-29T12:30:33;96578.47;;;12.81;64.08
28000;BME280;15328;50.860;10.562;2023-04-29T12:35:35;96578.59;;;12.74;63.63
28000;BME280;15328;50.860;10.562;2023-04-29T12:40:36;96581.59;;;12.78;63.96
28000;BME280;15328;50.860;10.562;2023-04-29T12:45:37;96597.03;;;12.76;63.83
28000;BME280;15328;50.860;10.562;2023-04-29T12:50:38;96594.47;;;12.69;63.46
28000;BME280;15328;50.860;10.562;2023-04-29T12:55:39;96600.28;;;12.78;63.38
28000;BME280;15328;50.860;10.562;2023-04-29T13:00:39;96596.69;;;12.72;63.67
28000;BME280;15328;50.860;10.562;2023-04-29T13:05:41;96601.47;;;12.82;63.29
28000;BME280;15328;50.860;10.562;2023-04-29T13:10:41;96602.63;;;12.86;62.94
28000;BME280;15328;50.860;10.562;2023-04-29T13:15:42;96596.47;;;13.15;62.48
28000;BME280;15328;50.860;10.562;2023-04-29T13:20:42;96599.75;;;13.17;62.26
28000;BME280;15328;50.860;10.562;2023-04-29T13:25:42;96598.00;;;13.23;62.05
28000;BME280;15328;50.860;10.562;2023-04-29T13:30:43;96599.28;;;13.20;62.41
28000;BME280;15328;50.860;10.562;2023-04-29T13:35:43;96593.25;;;13.48;61.85
28000;BME280;15328;50.860;10.562;2023-04-29T13:40:44;96593.25;;;13.72;61.09
28000;BME280;15328;50.860;10.562;2023-04-29T13:45:45;96590.31;;;14.08;58.40
28000;BME280;15328;50.860;10.562;2023-04-29T13:50:45;96592.69;;;14.21;57.88
28000;BME280;15328;50.860;10.562;2023-04-29T13:55:45;96602.00;;;14.31;57.68
28000;BME280;15328;50.860;10.562;2023-04-29T14:00:46;96600.50;;;14.23;57.66
28000;BME280;15328;50.860;10.562;2023-04-29T14:05:46;96589.88;;;14.00;57.16
28000;BME280;15328;50.860;10.562;2023-04-29T14:10:47;96606.16;;;13.98;57.31
28000;BME280;15328;50.860;10.562;2023-04-29T14:15:47;96610.53;;;13.92;57.51
28000;BME280;15328;50.860;10.562;2023-04-29T14:20:47;96615.34;;;13.79;56.63
28000;BME280;15328;50.860;10.562;2023-04-29T14:25:48;96621.84;;;13.48;55.45
28000;BME280;15328;50.860;10.562;2023-04-29T14:30:48;96628.91;;;13.66;56.60
28000;BME280;15328;50.860;10.562;2023-04-29T14:35:48;96629.03;;;13.59;56.11
28000;BME280;15328;50.860;10.562;2023-04-29T14:40:49;96640.81;;;13.70;56.35
28000;BME280;15328;50.860;10.562;2023-04-29T14:45:49;96637.78;;;13.78;55.99
28000;BME280;15328;50.860;10.562;2023-04-29T14:50:50;96643.69;;;13.80;56.02
28000;BME280;15328;50.860;10.562;2023-04-29T15:00:53;96660.22;;;13.77;55.84
28000;BME280;15328;50.860;10.562;2023-04-29T15:05:54;96660.78;;;13.79;55.49
28000;BME280;15328;50.860;10.562;2023-04-29T15:10:54;96665.31;;;13.78;55.89
28000;BME280;15328;50.860;10.562;2023-04-29T15:15:56;96667.06;;;13.73;55.61
28000;BME280;15328;50.860;10.562;2023-04-29T15:20:56;96673.56;;;13.65;56.36
28000;BME280;15328;50.860;10.562;2023-04-29T15:25:56;96680.19;;;13.63;56.15
28000;BME280;15328;50.860;10.562;2023-04-29T15:30:57;96688.19;;;13.63;55.35
28000;BME280;15328;50.860;10.562;2023-04-29T15:36:00;96694.00;;;13.59;55.47
28000;BME280;15328;50.860;10.562;2023-04-29T15:41:01;96692.16;;;13.60;55.33
28000;BME280;15328;50.860;10.562;2023-04-29T15:46:03;96696.09;;;13.57;55.50
28000;BME280;15328;50.860;10.562;2023-04-29T15:51:03;96700.84;;;13.55;54.97
28000;BME280;15328;50.860;10.562;2023-04-29T15:56:04;96703.06;;;13.47;55.46
28000;BME280;15328;50.860;10.562;2023-04-29T16:01:04;96707.81;;;13.45;55.52
28000;BME280;15328;50.860;10.562;2023-04-29T16:06:05;96710.09;;;13.41;56.28
28000;BME280;15328;50.860;10.562;2023-04-29T16:11:05;96716.97;;;13.37;56.52
28000;BME280;15328;50.860;10.562;2023-04-29T16:16:06;96717.88;;;13.31;56.20
28000;BME280;15328;50.860;10.562;2023-04-29T16:21:06;96716.47;;;13.28;56.48
28000;BME280;15328;50.860;10.562;2023-04-29T16:26:07;96719.97;;;13.29;56.34
28000;BME280;15328;50.860;10.562;2023-04-29T16:31:08;96722.28;;;13.25;56.38
28000;BME280;15328;50.860;10.562;2023-04-29T16:36:12;96723.31;;;13.24;56.32
28000;BME280;15328;50.860;10.562;2023-04-29T16:41:12;96734.69;;;13.20;56.39
28000;BME280;15328;50.860;10.562;2023-04-29T16:46:13;96730.53;;;13.06;56.74
28000;BME280;15328;50.860;10.562;2023-04-29T16:51:13;96736.19;;;12.97;56.59
28000;BME280;15328;50.860;10.562;2023-04-29T16:56:13;96732.78;;;12.90;56.02
28000;BME280;15328;50.860;10.562;2023-04-29T17:01:15;96740.03;;;12.83;56.86
28000;BME280;15328;50.860;10.562;2023-04-29T17:06:18;96755.41;;;12.88;56.88
28000;BME280;15328;50.860;10.562;2023-04-29T17:11:18;96753.84;;;12.80;57.48
28000;BME280;15328;50.860;10.562;2023-04-29T17:16:19;96751.41;;;12.79;57.34
28000;BME280;15328;50.860;10.562;2023-04-29T17:21:19;96761.84;;;12.80;57.67
28000;BME280;15328;50.860;10.562;2023-04-29T17:26:23;96755.19;;;12.71;58.07
28000;BME280;15328;50.860;10.562;2023-04-29T17:31:24;96761.94;;;12.74;58.75
28000;BME280;15328;50.860;10.562;2023-04-29T17:36:30;96766.47;;;12.73;57.89
28000;BME280;15328;50.860;10.562;2023-04-29T17:41:31;96770.03;;;12.67;57.47
28000;BME280;15328;50.860;10.562;2023-04-29T17:46:32;96768.25;;;12.61;58.06
28000;BME280;15328;50.860;10.562;2023-04-29T17:51:33;96775.50;;;12.54;58.58
28000;BME280;15328;50.860;10.562;2023-04-29T17:56:34;96780.91;;;12.47;58.10
28000;BME280;15328;50.860;10.562;2023-04-29T18:01:35;96784.47;;;12.41;58.25
28000;BME280;15328;50.860;10.562;2023-04-29T18:06:35;96790.50;;;12.30;58.21
28000;BME280;15328;50.860;10.562;2023-04-29T18:11:35;96780.50;;;12.25;58.00
28000;BME280;15328;50.860;10.562;2023-04-29T18:16:36;96782.44;;;12.18;58.18
28000;BME280;15328;50.860;10.562;2023-04-29T18:21:36;96795.38;;;12.15;58.39
28000;BME280;15328;50.860;10.562;2023-04-29T18:26:37;96796.63;;;12.12;58.70
28000;BME280;15328;50.860;10.562;2023-04-29T18:31:37;96799.69;;;12.16;58.80
28000;BME280;15328;50.860;10.562;2023-04-29T18:36:37;96809.75;;;12.14;58.86
28000;BME280;15328;50.860;10.562;2023-04-29T18:41:38;96803.22;;;12.10;58.86
28000;BME280;15328;50.860;10.562;2023-04-29T18:46:39;96817.41;;;12.03;58.97
28000;BME280;15328;50.860;10.562;2023-04-29T18:51:39;96829.16;;;11.96;59.56
28000;BME280;15328;50.860;10.562;2023-04-29T18:56:49;96820.19;;;11.90;60.05
28000;BME280;15328;50.860;10.562;2023-04-29T19:01:51;96837.88;;;11.85;60.07
28000;BME280;15328;50.860;10.562;2023-04-29T19:06:51;96837.03;;;11.77;60.24
28000;BME280;15328;50.860;10.562;2023-04-29T19:11:52;96837.91;;;11.71;60.56
28000;BME280;15328;50.860;10.562;2023-04-29T19:16:52;96847.38;;;11.67;60.88
28000;BME280;15328;50.860;10.562;2023-04-29T19:21:55;96853.94;;;11.65;60.94
28000;BME280;15328;50.860;10.562;2023-04-29T19:26:55;96852.31;;;11.64;61.52
28000;BME280;15328;50.860;10.562;2023-04-29T19:31:55;96861.78;;;11.60;60.90
28000;BME280;15328;50.860;10.562;2023-04-29T19:36:56;96867.09;;;11.60;61.24
28000;BME280;15328;50.860;10.562;2023-04-29T19:41:56;96862.84;;;11.52;61.33
28000;BME280;15328;50.860;10.562;2023-04-29T19:46:57;96871.25;;;11.49;61.75
28000;BME280;15328;50.860;10.562;2023-04-29T19:51:57;96860.78;;;11.48;61.96
28000;BME280;15328;50.860;10.562;2023-04-29T19:56:58;96872.47;;;11.46;62.00
28000;BME280;15328;50.860;10.562;2023-04-29T20:01:58;96873.09;;;11.49;61.88
28000;BME280;15328;50.860;10.562;2023-04-29T20:06:58;96871.28;;;11.42;62.50
28000;BME280;15328;50.860;10.562;2023-04-29T20:11:58;96875.34;;;11.45;62.11
28000;BME280;15328;50.860;10.562;2023-04-29T20:17:01;96865.13;;;11.42;62.08
28000;BME280;15328;50.860;10.562;2023-04-29T20:22:02;96871.31;;;11.36;62.75
28000;BME280;15328;50.860;10.562;2023-04-29T20:27:02;96872.53;;;11.40;62.96
28000;BME280;15328;50.860;10.562;2023-04-29T20:32:03;96880.34;;;11.35;63.07
28000;BME280;15328;50.860;10.562;2023-04-29T20:37:04;96879.13;;;11.31;62.94
28000;BME280;15328;50.860;10.562;2023-04-29T20:42:06;96889.78;;;11.31;63.54
28000;BME280;15328;50.860;10.562;2023-04-29T20:47:06;96890.22;;;11.28;63.34
28000;BME280;15328;50.860;10.562;2023-04-29T20:52:07;96898.19;;;11.28;63.34
28000;BME280;15328;50.860;10.562;2023-04-29T20:57:07;96900.00;;;11.34;63.42
28000;BME280;15328;50.860;10.562;2023-04-29T21:02:08;96906.78;;;11.30;63.86
28000;BME280;15328;50.860;10.562;2023-04-29T21:07:08;96895.97;;;11.25;63.47
28000;BME280;15328;50.860;10.562;2023-04-29T21:12:09;96904.56;;;11.27;63.96
28000;BME280;15328;50.860;10.562;2023-04-29T21:17:09;96906.59;;;11.18;64.17
28000;BME280;15328;50.860;10.562;2023-04-29T21:22:10;96912.97;;;11.17;64.51
28000;BME280;15328;50.860;10.562;2023-04-29T21:27:10;96902.91;;;11.19;64.40
28000;BME280;15328;50.860;10.562;2023-04-29T21:32:10;96903.38;;;11.09;64.11
28000;BME280;15328;50.860;10.562;2023-04-29T21:37:11;96911.78;;;11.06;64.72
28000;BME280;15328;50.860;10.562;2023-04-29T21:42:11;96908.31;;;10.99;64.73
28000;BME280;15328;50.860;10.562;2023-04-29T21:47:12;96906.88;;;10.90;64.27
28000;BME280;15328;50.860;10.562;2023-04-29T21:52:13;96910.38;;;10.84;64.99
28000;BME280;15328;50.860;10.562;2023-04-29T21:57:13;96903.44;;;10.76;64.78
28000;BME280;15328;50.860;10.562;2023-04-29T22:02:14;96916.53;;;10.65;64.45
28000;BME280;15328;50.860;10.562;2023-04-29T22:07:21;96913.09;;;10.51;64.29
28000;BME280;15328;50.860;10.562;2023-04-29T22:12:21;96914.09;;;10.37;65.04
28000;BME280;15328;50.860;10.562;2023-04-29T22:17:22;96917.19;;;10.20;64.89
28000;BME280;15328;50.860;10.562;2023-04-29T22:22:22;96920.19;;;10.11;65.31
28000;BME280;15328;50.860;10.562;2023-04-29T22:27:23;96919.16;;;10.05;65.56
28000;BME280;15328;50.860;10.562;2023-04-29T22:32:23;96932.03;;;10.02;65.35
28000;BME280;15328;50.860;10.562;2023-04-29T22:37:23;96931.44;;;10.00;65.42
28000;BME280;15328;50.860;10.562;2023-04-29T22:42:24;96931.00;;;9.89;65.28
28000;BME280;15328;50.860;10.562;2023-04-29T22:47:24;96923.59;;;9.78;65.52
28000;BME280;15328;50.860;10.562;2023-04-29T22:52:25;96925.44;;;9.71;65.67
28000;BME280;15328;50.860;10.562;2023-04-29T22:57:26;96936.88;;;9.65;65.29
28000;BME280;15328;50.860;10.562;2023-04-29T23:02:27;96932.72;;;9.56;65.65
28000;BME280;15328;50.860;10.562;2023-04-29T23:07:28;96929.25;;;9.49;65.83
28000;BME280;15328;50.860;10.562;2023-04-29T23:12:28;96935.13;;;9.38;65.51
28000;BME280;15328;50.860;10.562;2023-04-29T23:17:29;96941.59;;;9.22;66.07
28000;BME280;15328;50.860;10.562;2023-04-29T23:22:29;96939.91;;;9.14;66.07
28000;BME280;15328;50.860;10.562;2023-04-29T23:27:30;96942.53;;;9.08;66.21
28000;BME280;15328;50.860;10.562;2023-04-29T23:32:30;96949.19;;;8.97;66.00
28000;BME280;15328;50.860;10.562;2023-04-29T23:37:31;96952.00;;;8.89;66.17
28000;BME280;15328;50.860;10.562;2023-04-29T23:42:31;96951.56;;;8.79;66.42
28000;BME280;15328;50.860;10.562;2023-04-29T23:47:32;96956.56;;;8.67;66.63
28000;BME280;15328;50.860;10.562;2023-04-29T23:52:32;96954.06;;;8.59;66.74
28000;BME280;15328;50.860;10.562;2023-04-29T23:57:33;96957.09;;;8.56;66.56
